首页
METAR-TAF:

METAR-TAF

机场 :

Lemhi County Airport

Salmon, 爱达荷州, 美国

纬度: 45-07N, 经度: 113-53W, 海拔: 1233米

当前天气观测

该预报发布于56分钟前的19:56 UTC
风速6节,风向东北
温度 17°C
湿度 27%
气压 1016 hPa
能見度: 16.1公里
多云层高于9000英尺

METAR: KSMN 261956Z AUTO 04006KT 10SM BKN090 17/M02 A3000 RMK AO2 SLP148 T01721017

时间: 14:52 (20:52 UTC)

预报

该预报发布于3小时和5分钟前的17:47 UTC
预报有效从26日的 18点(UTC)到 27日的 18点(UTC)
风速5节,风向多变
能見度: 10公里
多云层高于4000英尺
阴天层高于5000英尺
从 26日的 2000点(UTC)
风速10节,风向北转西北,有时为20节阵风
能見度: 10公里
多云层高于10000英尺
从 27日的 0200点(UTC)
风速4节,风向多变
能見度: 10公里
多云层高于25000英尺

TAF: KSMN 261747Z 2618/2718 VRB05KT P6SM BKN040 OVC050 FM262000 34010G20KT P6SM BKN100 FM270200 VRB04KT P6SM BKN250 AMD NOT SKED

超过4000个机场的气象观测和天气预报(METAR&TAF报告)。

可查询的气象台以黄色和红色小点在地图上表示。

将鼠标移到小点上方,可查看气象台名称。

然后点击查看天气观测和预报。

如需切换地图:点击带黑十字的绿色按钮放大地图;点击带横线的绿色按钮缩小地图;或者点击绿色箭头查看邻近地区的地图。


METAR-TAF: